Kezdőlap
METAR-TAF:

METAR-TAF

Repülőterek :

Sheldon Municipal Airport

Sheldon, Iowa, Amerikai Egyesült Államok

földrajzi szélesség: 43-13N, földrajzi hosszúság: 095-50W, magasság: 432 m

Jelenlegi meteorológiai megfigyelések

A jelentés 20 perccel ezelõtt készült, 07:55 UTC
Északnyugati szél 8 kt széllökések: 14 kt, nyugati és északi között változik
Hőmérséklet 23°C
Páratartalom 100%
Légköri nyomás 1012 hPa
Látótávolság: 14.5 km
Kevés felhő 800 lábon
Szakadozott felhőzet 3200 lábon
Borult 4400 lábon

METAR: KSHL 100755Z AUTO 31008G14KT 280V350 9SM FEW008 BKN032 OVC044 23/23 A2989 RMK AO2

Idő: 03:15 (08:15 UTC)


TAF: hiányzik

Meteorológiai megfigyelések és előrejelzések több, mint 4000 repülőtéren (METAR és TAF jelentéseket).

A térképen piros és sárga pontok jelzik az elérhető meteorológiai állomásokat.

Mozgassa az egeret a pont fölött, hogy megjelenjen az állomás neve.

Azután kattintson az időjárási megfigyelések és előrejelzések megtekintéséhez.

A térkép megváltoztatása: kattintson a fekete keresztel jelölt zöld gombra ráközelítéshez, a vonallal jelölt zöld gombra távolításhoz, vagy a zöld nyilakra a szomszédos térképek eléréséhez.


METAR-TAF: